sensor_id;sensor_type;location;lat;lon;timestamp;P1;durP1;ratioP1;P2;durP2;ratioP2
71777;SDS011;59609;52.430;4.668;2024-01-06T00:00:27;8.43;;;3.53;;
71777;SDS011;59609;52.430;4.668;2024-01-06T00:02:53;9.10;;;4.07;;
71777;SDS011;59609;52.430;4.668;2024-01-06T00:05:18;6.32;;;4.13;;
71777;SDS011;59609;52.430;4.668;2024-01-06T00:07:43;14.25;;;4.43;;
71777;SDS011;59609;52.430;4.668;2024-01-06T00:10:09;6.85;;;3.72;;
71777;SDS011;59609;52.430;4.668;2024-01-06T00:12:34;7.80;;;4.00;;
71777;SDS011;59609;52.430;4.668;2024-01-06T00:15:00;8.57;;;3.85;;
71777;SDS011;59609;52.430;4.668;2024-01-06T00:17:25;10.68;;;4.50;;
71777;SDS011;59609;52.430;4.668;2024-01-06T00:19:51;9.45;;;4.25;;
71777;SDS011;59609;52.430;4.668;2024-01-06T00:22:17;6.22;;;3.75;;
71777;SDS011;59609;52.430;4.668;2024-01-06T00:24:45;8.13;;;3.60;;
71777;SDS011;59609;52.430;4.668;2024-01-06T00:27:11;8.90;;;3.72;;
71777;SDS011;59609;52.430;4.668;2024-01-06T00:29:38;6.22;;;3.97;;
71777;SDS011;59609;52.430;4.668;2024-01-06T00:32:04;7.15;;;3.67;;
71777;SDS011;59609;52.430;4.668;2024-01-06T00:34:30;7.25;;;3.45;;
71777;SDS011;59609;52.430;4.668;2024-01-06T00:36:55;6.30;;;3.00;;
71777;SDS011;59609;52.430;4.668;2024-01-06T00:39:24;7.25;;;2.85;;
71777;SDS011;59609;52.430;4.668;2024-01-06T00:41:49;4.68;;;3.05;;
71777;SDS011;59609;52.430;4.668;2024-01-06T00:44:15;6.25;;;3.78;;
71777;SDS011;59609;52.430;4.668;2024-01-06T00:46:40;3.05;;;2.63;;
71777;SDS011;59609;52.430;4.668;2024-01-06T00:49:05;5.20;;;3.10;;
71777;SDS011;59609;52.430;4.668;2024-01-06T00:51:31;3.65;;;3.03;;
71777;SDS011;59609;52.430;4.668;2024-01-06T00:53:56;5.00;;;3.05;;
71777;SDS011;59609;52.430;4.668;2024-01-06T00:56:22;4.70;;;2.90;;
71777;SDS011;59609;52.430;4.668;2024-01-06T00:58:47;5.13;;;3.33;;
71777;SDS011;59609;52.430;4.668;2024-01-06T01:01:13;4.75;;;2.80;;
71777;SDS011;59609;52.430;4.668;2024-01-06T01:03:38;6.55;;;3.58;;
71777;SDS011;59609;52.430;4.668;2024-01-06T01:06:03;3.88;;;2.97;;
71777;SDS011;59609;52.430;4.668;2024-01-06T01:08:29;7.50;;;3.35;;
71777;SDS011;59609;52.430;4.668;2024-01-06T01:10:55;6.05;;;2.95;;
71777;SDS011;59609;52.430;4.668;2024-01-06T01:13:21;4.43;;;3.05;;
71777;SDS011;59609;52.430;4.668;2024-01-06T01:15:47;6.53;;;2.58;;
71777;SDS011;59609;52.430;4.668;2024-01-06T01:18:13;5.53;;;2.80;;
71777;SDS011;59609;52.430;4.668;2024-01-06T01:20:38;3.47;;;3.05;;
71777;SDS011;59609;52.430;4.668;2024-01-06T01:23:03;2.35;;;2.15;;
71777;SDS011;59609;52.430;4.668;2024-01-06T01:25:29;4.32;;;2.63;;
71777;SDS011;59609;52.430;4.668;2024-01-06T01:27:54;5.90;;;2.85;;
71777;SDS011;59609;52.430;4.668;2024-01-06T01:30:19;4.20;;;3.38;;
71777;SDS011;59609;52.430;4.668;2024-01-06T01:32:45;4.13;;;3.00;;
71777;SDS011;59609;52.430;4.668;2024-01-06T01:35:10;4.55;;;2.90;;
71777;SDS011;59609;52.430;4.668;2024-01-06T01:37:35;3.83;;;2.30;;
71777;SDS011;59609;52.430;4.668;2024-01-06T01:40:01;4.50;;;3.00;;
71777;SDS011;59609;52.430;4.668;2024-01-06T01:42:26;7.30;;;3.10;;
71777;SDS011;59609;52.430;4.668;2024-01-06T01:44:51;4.30;;;2.65;;
71777;SDS011;59609;52.430;4.668;2024-01-06T01:47:17;5.72;;;3.45;;
71777;SDS011;59609;52.430;4.668;2024-01-06T01:49:45;5.68;;;3.40;;
71777;SDS011;59609;52.430;4.668;2024-01-06T01:52:12;5.82;;;3.50;;
71777;SDS011;59609;52.430;4.668;2024-01-06T01:54:39;7.82;;;3.75;;
71777;SDS011;59609;52.430;4.668;2024-01-06T01:57:06;5.60;;;3.40;;
71777;SDS011;59609;52.430;4.668;2024-01-06T01:59:31;6.95;;;4.35;;
71777;SDS011;59609;52.430;4.668;2024-01-06T02:01:58;7.25;;;3.58;;
71777;SDS011;59609;52.430;4.668;2024-01-06T02:04:23;3.78;;;3.13;;
71777;SDS011;59609;52.430;4.668;2024-01-06T02:06:49;4.85;;;3.25;;
71777;SDS011;59609;52.430;4.668;2024-01-06T02:09:14;4.38;;;3.10;;
71777;SDS011;59609;52.430;4.668;2024-01-06T02:11:40;6.25;;;3.25;;
71777;SDS011;59609;52.430;4.668;2024-01-06T02:14:05;6.18;;;3.75;;
71777;SDS011;59609;52.430;4.668;2024-01-06T02:16:31;7.18;;;3.55;;
71777;SDS011;59609;52.430;4.668;2024-01-06T02:18:56;8.40;;;3.90;;
71777;SDS011;59609;52.430;4.668;2024-01-06T02:21:23;7.25;;;3.90;;
71777;SDS011;59609;52.430;4.668;2024-01-06T02:23:49;6.40;;;3.60;;
71777;SDS011;59609;52.430;4.668;2024-01-06T02:26:14;5.75;;;3.78;;
71777;SDS011;59609;52.430;4.668;2024-01-06T02:28:40;6.38;;;4.22;;
71777;SDS011;59609;52.430;4.668;2024-01-06T02:31:05;10.57;;;4.38;;
71777;SDS011;59609;52.430;4.668;2024-01-06T02:33:31;6.80;;;4.40;;
71777;SDS011;59609;52.430;4.668;2024-01-06T02:35:56;8.68;;;4.10;;
71777;SDS011;59609;52.430;4.668;2024-01-06T02:38:21;10.23;;;4.18;;
71777;SDS011;59609;52.430;4.668;2024-01-06T02:40:47;8.80;;;4.28;;
71777;SDS011;59609;52.430;4.668;2024-01-06T02:43:12;8.65;;;4.10;;
71777;SDS011;59609;52.430;4.668;2024-01-06T02:45:38;6.28;;;4.15;;
71777;SDS011;59609;52.430;4.668;2024-01-06T02:48:03;4.03;;;3.50;;
71777;SDS011;59609;52.430;4.668;2024-01-06T02:50:29;6.65;;;3.28;;
71777;SDS011;59609;52.430;4.668;2024-01-06T02:52:54;5.53;;;2.90;;
71777;SDS011;59609;52.430;4.668;2024-01-06T02:55:20;7.15;;;3.38;;
71777;SDS011;59609;52.430;4.668;2024-01-06T02:57:45;7.10;;;4.00;;
71777;SDS011;59609;52.430;4.668;2024-01-06T03:00:10;5.47;;;4.00;;
71777;SDS011;59609;52.430;4.668;2024-01-06T03:02:37;5.40;;;3.55;;
71777;SDS011;59609;52.430;4.668;2024-01-06T03:05:06;6.45;;;3.97;;
71777;SDS011;59609;52.430;4.668;2024-01-06T03:07:32;8.45;;;4.10;;
71777;SDS011;59609;52.430;4.668;2024-01-06T03:09:58;6.88;;;4.10;;
71777;SDS011;59609;52.430;4.668;2024-01-06T03:12:23;5.03;;;3.40;;
71777;SDS011;59609;52.430;4.668;2024-01-06T03:14:48;8.50;;;3.45;;
71777;SDS011;59609;52.430;4.668;2024-01-06T03:17:14;5.32;;;3.75;;
71777;SDS011;59609;52.430;4.668;2024-01-06T03:19:39;3.60;;;3.00;;
71777;SDS011;59609;52.430;4.668;2024-01-06T03:22:04;7.93;;;3.70;;
71777;SDS011;59609;52.430;4.668;2024-01-06T03:24:30;11.02;;;3.80;;
71777;SDS011;59609;52.430;4.668;2024-01-06T03:26:56;6.40;;;3.88;;
71777;SDS011;59609;52.430;4.668;2024-01-06T03:29:21;6.28;;;3.95;;
71777;SDS011;59609;52.430;4.668;2024-01-06T03:31:47;8.85;;;3.85;;
71777;SDS011;59609;52.430;4.668;2024-01-06T03:34:12;9.05;;;3.78;;
71777;SDS011;59609;52.430;4.668;2024-01-06T03:36:38;5.28;;;3.28;;
71777;SDS011;59609;52.430;4.668;2024-01-06T03:39:04;5.43;;;3.88;;
71777;SDS011;59609;52.430;4.668;2024-01-06T03:41:29;7.75;;;3.22;;
71777;SDS011;59609;52.430;4.668;2024-01-06T03:43:55;7.03;;;3.53;;
71777;SDS011;59609;52.430;4.668;2024-01-06T03:46:21;9.57;;;3.85;;
71777;SDS011;59609;52.430;4.668;2024-01-06T03:48:47;9.38;;;3.17;;
71777;SDS011;59609;52.430;4.668;2024-01-06T03:51:12;7.05;;;3.55;;
71777;SDS011;59609;52.430;4.668;2024-01-06T03:53:38;6.10;;;3.58;;
71777;SDS011;59609;52.430;4.668;2024-01-06T03:56:03;5.68;;;3.35;;
71777;SDS011;59609;52.430;4.668;2024-01-06T03:58:29;6.07;;;3.47;;
71777;SDS011;59609;52.430;4.668;2024-01-06T04:00:54;5.88;;;3.50;;
71777;SDS011;59609;52.430;4.668;2024-01-06T04:03:20;5.53;;;3.15;;
71777;SDS011;59609;52.430;4.668;2024-01-06T04:05:46;4.00;;;3.08;;
71777;SDS011;59609;52.430;4.668;2024-01-06T04:08:11;5.07;;;3.55;;
71777;SDS011;59609;52.430;4.668;2024-01-06T04:10:36;7.45;;;3.55;;
71777;SDS011;59609;52.430;4.668;2024-01-06T04:13:02;6.53;;;3.47;;
71777;SDS011;59609;52.430;4.668;2024-01-06T04:15:27;8.02;;;3.40;;
71777;SDS011;59609;52.430;4.668;2024-01-06T04:17:54;6.80;;;3.45;;
71777;SDS011;59609;52.430;4.668;2024-01-06T04:20:19;7.13;;;3.00;;
71777;SDS011;59609;52.430;4.668;2024-01-06T04:22:44;3.63;;;2.92;;
71777;SDS011;59609;52.430;4.668;2024-01-06T04:25:10;6.40;;;3.58;;
71777;SDS011;59609;52.430;4.668;2024-01-06T04:27:35;7.25;;;3.53;;
71777;SDS011;59609;52.430;4.668;2024-01-06T04:30:01;7.95;;;3.67;;
71777;SDS011;59609;52.430;4.668;2024-01-06T04:32:27;7.32;;;3.80;;
71777;SDS011;59609;52.430;4.668;2024-01-06T04:34:52;8.82;;;3.55;;
71777;SDS011;59609;52.430;4.668;2024-01-06T04:37:17;6.45;;;3.35;;
71777;SDS011;59609;52.430;4.668;2024-01-06T04:39:43;6.00;;;3.08;;
71777;SDS011;59609;52.430;4.668;2024-01-06T04:42:08;6.13;;;3.08;;
71777;SDS011;59609;52.430;4.668;2024-01-06T04:44:33;6.50;;;2.85;;
71777;SDS011;59609;52.430;4.668;2024-01-06T04:46:59;4.25;;;2.22;;
71777;SDS011;59609;52.430;4.668;2024-01-06T04:49:24;5.20;;;2.38;;
71777;SDS011;59609;52.430;4.668;2024-01-06T04:51:49;4.97;;;2.75;;
71777;SDS011;59609;52.430;4.668;2024-01-06T04:54:15;4.80;;;3.28;;
71777;SDS011;59609;52.430;4.668;2024-01-06T04:56:40;3.25;;;2.53;;
71777;SDS011;59609;52.430;4.668;2024-01-06T04:59:05;6.50;;;2.83;;
71777;SDS011;59609;52.430;4.668;2024-01-06T05:01:31;5.95;;;2.85;;
71777;SDS011;59609;52.430;4.668;2024-01-06T05:03:57;4.57;;;2.90;;
71777;SDS011;59609;52.430;4.668;2024-01-06T05:06:23;6.22;;;3.05;;
71777;SDS011;59609;52.430;4.668;2024-01-06T05:08:48;3.88;;;2.88;;
71777;SDS011;59609;52.430;4.668;2024-01-06T05:11:14;4.97;;;2.75;;
71777;SDS011;59609;52.430;4.668;2024-01-06T05:13:39;5.35;;;2.95;;
71777;SDS011;59609;52.430;4.668;2024-01-06T05:16:04;5.93;;;3.42;;
71777;SDS011;59609;52.430;4.668;2024-01-06T05:18:30;7.18;;;3.38;;
71777;SDS011;59609;52.430;4.668;2024-01-06T05:20:55;5.22;;;3.20;;
71777;SDS011;59609;52.430;4.668;2024-01-06T05:23:22;4.47;;;3.30;;
71777;SDS011;59609;52.430;4.668;2024-01-06T05:25:47;6.55;;;4.18;;
71777;SDS011;59609;52.430;4.668;2024-01-06T05:28:12;9.15;;;4.18;;
71777;SDS011;59609;52.430;4.668;2024-01-06T05:30:38;8.07;;;4.30;;
71777;SDS011;59609;52.430;4.668;2024-01-06T05:33:03;7.38;;;3.83;;
71777;SDS011;59609;52.430;4.668;2024-01-06T05:35:29;8.85;;;4.75;;
71777;SDS011;59609;52.430;4.668;2024-01-06T05:37:54;7.50;;;4.13;;
71777;SDS011;59609;52.430;4.668;2024-01-06T05:40:20;6.97;;;3.75;;
71777;SDS011;59609;52.430;4.668;2024-01-06T05:42:45;9.70;;;4.65;;
71777;SDS011;59609;52.430;4.668;2024-01-06T05:45:11;7.25;;;4.53;;
71777;SDS011;59609;52.430;4.668;2024-01-06T05:47:38;9.98;;;4.38;;
71777;SDS011;59609;52.430;4.668;2024-01-06T05:50:03;7.70;;;4.72;;
71777;SDS011;59609;52.430;4.668;2024-01-06T05:52:29;6.65;;;4.32;;
71777;SDS011;59609;52.430;4.668;2024-01-06T05:54:54;6.28;;;4.40;;
71777;SDS011;59609;52.430;4.668;2024-01-06T05:57:20;12.85;;;3.83;;
71777;SDS011;59609;52.430;4.668;2024-01-06T05:59:45;6.18;;;4.38;;
71777;SDS011;59609;52.430;4.668;2024-01-06T06:02:10;7.22;;;3.90;;
71777;SDS011;59609;52.430;4.668;2024-01-06T06:04:36;5.70;;;4.05;;
71777;SDS011;59609;52.430;4.668;2024-01-06T06:07:01;5.90;;;4.35;;
71777;SDS011;59609;52.430;4.668;2024-01-06T06:09:27;9.13;;;4.22;;
71777;SDS011;59609;52.430;4.668;2024-01-06T06:11:53;7.80;;;4.40;;
71777;SDS011;59609;52.430;4.668;2024-01-06T06:14:19;9.73;;;5.05;;
71777;SDS011;59609;52.430;4.668;2024-01-06T06:16:44;8.52;;;3.63;;
71777;SDS011;59609;52.430;4.668;2024-01-06T06:19:10;8.35;;;4.47;;
71777;SDS011;59609;52.430;4.668;2024-01-06T06:21:35;7.07;;;4.72;;
71777;SDS011;59609;52.430;4.668;2024-01-06T06:24:00;5.40;;;4.57;;
71777;SDS011;59609;52.430;4.668;2024-01-06T06:26:27;8.10;;;4.22;;
71777;SDS011;59609;52.430;4.668;2024-01-06T06:28:53;5.80;;;3.53;;
71777;SDS011;59609;52.430;4.668;2024-01-06T06:31:19;6.20;;;3.83;;
71777;SDS011;59609;52.430;4.668;2024-01-06T06:33:44;5.78;;;3.45;;
71777;SDS011;59609;52.430;4.668;2024-01-06T06:36:10;10.07;;;4.15;;
71777;SDS011;59609;52.430;4.668;2024-01-06T06:38:35;6.10;;;3.53;;
71777;SDS011;59609;52.430;4.668;2024-01-06T06:41:01;7.10;;;3.63;;
71777;SDS011;59609;52.430;4.668;2024-01-06T06:43:26;7.82;;;4.00;;
71777;SDS011;59609;52.430;4.668;2024-01-06T06:45:52;4.88;;;3.53;;
71777;SDS011;59609;52.430;4.668;2024-01-06T06:48:17;7.55;;;3.83;;
71777;SDS011;59609;52.430;4.668;2024-01-06T06:50:43;9.05;;;4.30;;
71777;SDS011;59609;52.430;4.668;2024-01-06T06:53:08;6.88;;;3.58;;
71777;SDS011;59609;52.430;4.668;2024-01-06T06:55:34;8.35;;;3.65;;
71777;SDS011;59609;52.430;4.668;2024-01-06T06:57:59;8.80;;;4.28;;
71777;SDS011;59609;52.430;4.668;2024-01-06T07:00:25;6.43;;;3.60;;
71777;SDS011;59609;52.430;4.668;2024-01-06T07:02:50;6.88;;;3.58;;
71777;SDS011;59609;52.430;4.668;2024-01-06T07:05:15;7.18;;;3.50;;
71777;SDS011;59609;52.430;4.668;2024-01-06T07:07:42;5.22;;;3.63;;
71777;SDS011;59609;52.430;4.668;2024-01-06T07:10:11;6.47;;;3.22;;
71777;SDS011;59609;52.430;4.668;2024-01-06T07:12:37;4.55;;;3.13;;
71777;SDS011;59609;52.430;4.668;2024-01-06T07:15:02;6.95;;;3.45;;
71777;SDS011;59609;52.430;4.668;2024-01-06T07:17:28;3.90;;;2.78;;
71777;SDS011;59609;52.430;4.668;2024-01-06T07:19:53;5.05;;;3.00;;
71777;SDS011;59609;52.430;4.668;2024-01-06T07:22:19;5.30;;;2.85;;
71777;SDS011;59609;52.430;4.668;2024-01-06T07:24:45;11.82;;;3.47;;
71777;SDS011;59609;52.430;4.668;2024-01-06T07:27:11;3.97;;;2.90;;
71777;SDS011;59609;52.430;4.668;2024-01-06T07:29:37;4.15;;;2.95;;
71777;SDS011;59609;52.430;4.668;2024-01-06T07:32:03;4.28;;;2.90;;
71777;SDS011;59609;52.430;4.668;2024-01-06T07:34:29;7.22;;;3.25;;
71777;SDS011;59609;52.430;4.668;2024-01-06T07:36:54;5.20;;;3.22;;
71777;SDS011;59609;52.430;4.668;2024-01-06T07:39:20;7.15;;;3.15;;
71777;SDS011;59609;52.430;4.668;2024-01-06T07:41:45;5.55;;;2.95;;
71777;SDS011;59609;52.430;4.668;2024-01-06T07:44:11;6.70;;;2.70;;
71777;SDS011;59609;52.430;4.668;2024-01-06T07:46:41;3.97;;;2.30;;
71777;SDS011;59609;52.430;4.668;2024-01-06T07:49:06;6.65;;;3.65;;
71777;SDS011;59609;52.430;4.668;2024-01-06T07:51:32;5.35;;;3.22;;
71777;SDS011;59609;52.430;4.668;2024-01-06T07:53:59;7.13;;;3.30;;
71777;SDS011;59609;52.430;4.668;2024-01-06T07:56:25;4.55;;;3.13;;
71777;SDS011;59609;52.430;4.668;2024-01-06T07:58:52;7.35;;;3.40;;
71777;SDS011;59609;52.430;4.668;2024-01-06T08:01:20;9.48;;;4.65;;
71777;SDS011;59609;52.430;4.668;2024-01-06T08:03:45;7.15;;;3.58;;
71777;SDS011;59609;52.430;4.668;2024-01-06T08:06:11;6.25;;;3.38;;
71777;SDS011;59609;52.430;4.668;2024-01-06T08:08:36;4.43;;;2.80;;
71777;SDS011;59609;52.430;4.668;2024-01-06T08:11:01;5.72;;;3.65;;
71777;SDS011;59609;52.430;4.668;2024-01-06T08:13:27;6.82;;;3.92;;
71777;SDS011;59609;52.430;4.668;2024-01-06T08:15:52;7.13;;;3.38;;
71777;SDS011;59609;52.430;4.668;2024-01-06T08:18:18;5.97;;;3.85;;
71777;SDS011;59609;52.430;4.668;2024-01-06T08:20:43;5.70;;;3.25;;
71777;SDS011;59609;52.430;4.668;2024-01-06T08:23:09;5.53;;;3.20;;
71777;SDS011;59609;52.430;4.668;2024-01-06T08:25:35;4.20;;;3.17;;
71777;SDS011;59609;52.430;4.668;2024-01-06T08:28:01;6.50;;;3.15;;
71777;SDS011;59609;52.430;4.668;2024-01-06T08:30:26;6.70;;;2.67;;
71777;SDS011;59609;52.430;4.668;2024-01-06T08:32:51;4.35;;;2.95;;
71777;SDS011;59609;52.430;4.668;2024-01-06T08:35:20;4.57;;;3.05;;
71777;SDS011;59609;52.430;4.668;2024-01-06T08:37:45;11.63;;;3.55;;
71777;SDS011;59609;52.430;4.668;2024-01-06T08:40:11;6.75;;;3.10;;
71777;SDS011;59609;52.430;4.668;2024-01-06T08:42:37;4.22;;;2.92;;
71777;SDS011;59609;52.430;4.668;2024-01-06T08:45:02;7.85;;;3.10;;
71777;SDS011;59609;52.430;4.668;2024-01-06T08:47:29;5.72;;;2.88;;
71777;SDS011;59609;52.430;4.668;2024-01-06T08:49:55;3.75;;;2.25;;
71777;SDS011;59609;52.430;4.668;2024-01-06T08:52:21;3.95;;;3.10;;
71777;SDS011;59609;52.430;4.668;2024-01-06T08:54:46;4.05;;;2.70;;
71777;SDS011;59609;52.430;4.668;2024-01-06T08:57:19;2.70;;;2.30;;
71777;SDS011;59609;52.430;4.668;2024-01-06T08:59:45;4.45;;;2.75;;
71777;SDS011;59609;52.430;4.668;2024-01-06T09:02:11;7.03;;;3.15;;
71777;SDS011;59609;52.430;4.668;2024-01-06T09:04:36;5.38;;;2.22;;
71777;SDS011;59609;52.430;4.668;2024-01-06T09:07:02;3.58;;;2.08;;
71777;SDS011;59609;52.430;4.668;2024-01-06T09:09:27;5.95;;;3.22;;
71777;SDS011;59609;52.430;4.668;2024-01-06T09:11:53;11.35;;;4.75;;
71777;SDS011;59609;52.430;4.668;2024-01-06T09:14:18;9.18;;;4.25;;
71777;SDS011;59609;52.430;4.668;2024-01-06T09:16:46;15.30;;;5.55;;
71777;SDS011;59609;52.430;4.668;2024-01-06T09:19:12;13.90;;;4.30;;
71777;SDS011;59609;52.430;4.668;2024-01-06T09:21:37;8.27;;;3.85;;
71777;SDS011;59609;52.430;4.668;2024-01-06T09:24:03;9.35;;;3.97;;
71777;SDS011;59609;52.430;4.668;2024-01-06T09:26:34;5.85;;;3.42;;
71777;SDS011;59609;52.430;4.668;2024-01-06T09:29:00;6.75;;;3.08;;
71777;SDS011;59609;52.430;4.668;2024-01-06T09:31:26;3.38;;;2.50;;
71777;SDS011;59609;52.430;4.668;2024-01-06T09:33:53;3.72;;;3.28;;
71777;SDS011;59609;52.430;4.668;2024-01-06T09:36:19;5.15;;;3.03;;
71777;SDS011;59609;52.430;4.668;2024-01-06T09:38:44;6.93;;;2.97;;
71777;SDS011;59609;52.430;4.668;2024-01-06T09:41:10;6.05;;;3.13;;
71777;SDS011;59609;52.430;4.668;2024-01-06T09:43:35;8.85;;;3.30;;
71777;SDS011;59609;52.430;4.668;2024-01-06T09:46:26;8.48;;;3.42;;
71777;SDS011;59609;52.430;4.668;2024-01-06T09:48:51;6.00;;;2.70;;
71777;SDS011;59609;52.430;4.668;2024-01-06T09:51:18;4.80;;;3.30;;
71777;SDS011;59609;52.430;4.668;2024-01-06T09:53:48;11.02;;;3.42;;
71777;SDS011;59609;52.430;4.668;2024-01-06T09:56:17;12.13;;;4.45;;
71777;SDS011;59609;52.430;4.668;2024-01-06T09:58:43;10.85;;;3.80;;
71777;SDS011;59609;52.430;4.668;2024-01-06T10:01:09;10.40;;;3.67;;
71777;SDS011;59609;52.430;4.668;2024-01-06T10:03:36;6.93;;;3.17;;
71777;SDS011;59609;52.430;4.668;2024-01-06T10:06:02;6.75;;;3.70;;
71777;SDS011;59609;52.430;4.668;2024-01-06T10:08:29;6.45;;;3.72;;
71777;SDS011;59609;52.430;4.668;2024-01-06T10:11:00;6.60;;;4.10;;
71777;SDS011;59609;52.430;4.668;2024-01-06T10:13:26;6.50;;;3.88;;
71777;SDS011;59609;52.430;4.668;2024-01-06T10:15:52;6.28;;;3.83;;
71777;SDS011;59609;52.430;4.668;2024-01-06T10:18:18;6.95;;;3.05;;
71777;SDS011;59609;52.430;4.668;2024-01-06T10:20:44;4.22;;;3.25;;
71777;SDS011;59609;52.430;4.668;2024-01-06T10:23:13;6.43;;;3.35;;
71777;SDS011;59609;52.430;4.668;2024-01-06T10:25:38;6.35;;;3.95;;
71777;SDS011;59609;52.430;4.668;2024-01-06T10:28:04;6.35;;;3.70;;
71777;SDS011;59609;52.430;4.668;2024-01-06T10:30:29;7.32;;;3.78;;
71777;SDS011;59609;52.430;4.668;2024-01-06T10:32:55;5.32;;;4.05;;
71777;SDS011;59609;52.430;4.668;2024-01-06T10:35:20;6.85;;;3.47;;
71777;SDS011;59609;52.430;4.668;2024-01-06T10:37:46;5.93;;;3.20;;
71777;SDS011;59609;52.430;4.668;2024-01-06T10:40:14;3.88;;;2.63;;
71777;SDS011;59609;52.430;4.668;2024-01-06T10:42:43;5.10;;;2.30;;
71777;SDS011;59609;52.430;4.668;2024-01-06T10:45:10;6.03;;;2.33;;
71777;SDS011;59609;52.430;4.668;2024-01-06T10:47:40;3.97;;;2.20;;
71777;SDS011;59609;52.430;4.668;2024-01-06T10:50:07;3.53;;;2.30;;
71777;SDS011;59609;52.430;4.668;2024-01-06T10:52:33;4.65;;;2.78;;
71777;SDS011;59609;52.430;4.668;2024-01-06T10:55:00;5.30;;;3.13;;
71777;SDS011;59609;52.430;4.668;2024-01-06T10:57:28;3.72;;;2.50;;
71777;SDS011;59609;52.430;4.668;2024-01-06T10:59:56;2.38;;;2.17;;
71777;SDS011;59609;52.430;4.668;2024-01-06T11:02:24;2.55;;;2.10;;
71777;SDS011;59609;52.430;4.668;2024-01-06T11:04:50;2.70;;;1.85;;
71777;SDS011;59609;52.430;4.668;2024-01-06T11:07:17;3.95;;;1.80;;
71777;SDS011;59609;52.430;4.668;2024-01-06T11:09:47;2.05;;;1.85;;
71777;SDS011;59609;52.430;4.668;2024-01-06T11:12:18;3.08;;;2.00;;
71777;SDS011;59609;52.430;4.668;2024-01-06T11:14:44;2.20;;;1.90;;
71777;SDS011;59609;52.430;4.668;2024-01-06T11:17:10;1.65;;;1.30;;
71777;SDS011;59609;52.430;4.668;2024-01-06T11:25:05;2.38;;;1.52;;
71777;SDS011;59609;52.430;4.668;2024-01-06T11:27:38;2.40;;;1.67;;
71777;SDS011;59609;52.430;4.668;2024-01-06T11:30:04;3.35;;;2.05;;
71777;SDS011;59609;52.430;4.668;2024-01-06T11:32:37;2.00;;;1.55;;
71777;SDS011;59609;52.430;4.668;2024-01-06T11:40:29;3.05;;;1.73;;
71777;SDS011;59609;52.430;4.668;2024-01-06T11:43:09;7.45;;;2.53;;
71777;SDS011;59609;52.430;4.668;2024-01-06T11:45:37;3.75;;;1.92;;
71777;SDS011;59609;52.430;4.668;2024-01-06T11:48:06;3.03;;;1.95;;
71777;SDS011;59609;52.430;4.668;2024-01-06T11:50:33;3.17;;;1.85;;
71777;SDS011;59609;52.430;4.668;2024-01-06T11:53:00;4.38;;;2.17;;
71777;SDS011;59609;52.430;4.668;2024-01-06T11:55:26;1.55;;;1.45;;
71777;SDS011;59609;52.430;4.668;2024-01-06T11:57:57;2.10;;;0.90;;
71777;SDS011;59609;52.430;4.668;2024-01-06T12:00:29;1.40;;;1.30;;
71777;SDS011;59609;52.430;4.668;2024-01-06T12:02:55;2.50;;;1.95;;
71777;SDS011;59609;52.430;4.668;2024-01-06T12:05:22;2.28;;;1.48;;
71777;SDS011;59609;52.430;4.668;2024-01-06T12:07:56;3.88;;;2.50;;
71777;SDS011;59609;52.430;4.668;2024-01-06T12:10:26;2.28;;;1.50;;
71777;SDS011;59609;52.430;4.668;2024-01-06T12:13:00;4.18;;;2.10;;
71777;SDS011;59609;52.430;4.668;2024-01-06T12:15:30;5.35;;;2.05;;
71777;SDS011;59609;52.430;4.668;2024-01-06T12:17:57;1.73;;;1.60;;
71777;SDS011;59609;52.430;4.668;2024-01-06T12:20:23;2.88;;;1.98;;
71777;SDS011;59609;52.430;4.668;2024-01-06T12:22:54;3.63;;;1.67;;
71777;SDS011;59609;52.430;4.668;2024-01-06T12:25:24;6.00;;;2.13;;
71777;SDS011;59609;52.430;4.668;2024-01-06T12:27:51;2.67;;;1.83;;
71777;SDS011;59609;52.430;4.668;2024-01-06T12:30:18;2.22;;;1.92;;
71777;SDS011;59609;52.430;4.668;2024-01-06T12:32:45;1.98;;;1.77;;
71777;SDS011;59609;52.430;4.668;2024-01-06T12:35:12;4.10;;;1.90;;
71777;SDS011;59609;52.430;4.668;2024-01-06T12:37:39;2.88;;;2.20;;
71777;SDS011;59609;52.430;4.668;2024-01-06T12:40:04;4.15;;;2.10;;
71777;SDS011;59609;52.430;4.668;2024-01-06T12:42:30;4.38;;;2.22;;
71777;SDS011;59609;52.430;4.668;2024-01-06T12:44:56;3.42;;;2.17;;
71777;SDS011;59609;52.430;4.668;2024-01-06T12:47:21;6.15;;;2.33;;
71777;SDS011;59609;52.430;4.668;2024-01-06T12:49:47;3.30;;;2.22;;
71777;SDS011;59609;52.430;4.668;2024-01-06T12:52:13;4.13;;;2.65;;
71777;SDS011;59609;52.430;4.668;2024-01-06T12:54:39;6.60;;;2.63;;
71777;SDS011;59609;52.430;4.668;2024-01-06T12:57:04;4.13;;;2.35;;
71777;SDS011;59609;52.430;4.668;2024-01-06T12:59:30;4.65;;;2.90;;
71777;SDS011;59609;52.430;4.668;2024-01-06T13:01:55;5.35;;;2.28;;
71777;SDS011;59609;52.430;4.668;2024-01-06T13:04:21;7.50;;;2.40;;
71777;SDS011;59609;52.430;4.668;2024-01-06T13:06:46;4.88;;;2.38;;
71777;SDS011;59609;52.430;4.668;2024-01-06T13:09:14;3.92;;;2.50;;
71777;SDS011;59609;52.430;4.668;2024-01-06T13:11:41;2.72;;;2.22;;
71777;SDS011;59609;52.430;4.668;2024-01-06T13:14:07;3.25;;;2.13;;
71777;SDS011;59609;52.430;4.668;2024-01-06T13:16:32;3.75;;;1.98;;
71777;SDS011;59609;52.430;4.668;2024-01-06T13:18:58;4.68;;;2.25;;
71777;SDS011;59609;52.430;4.668;2024-01-06T13:21:24;5.85;;;2.15;;
71777;SDS011;59609;52.430;4.668;2024-01-06T13:23:49;2.58;;;1.92;;
71777;SDS011;59609;52.430;4.668;2024-01-06T13:26:15;3.00;;;1.95;;
71777;SDS011;59609;52.430;4.668;2024-01-06T13:28:40;3.20;;;2.00;;
71777;SDS011;59609;52.430;4.668;2024-01-06T13:31:06;2.78;;;2.13;;
71777;SDS011;59609;52.430;4.668;2024-01-06T13:33:32;3.03;;;1.90;;
71777;SDS011;59609;52.430;4.668;2024-01-06T13:35:59;2.28;;;1.92;;
71777;SDS011;59609;52.430;4.668;2024-01-06T13:38:24;2.30;;;2.05;;
71777;SDS011;59609;52.430;4.668;2024-01-06T13:40:51;3.45;;;1.48;;
71777;SDS011;59609;52.430;4.668;2024-01-06T13:43:17;2.80;;;2.08;;
71777;SDS011;59609;52.430;4.668;2024-01-06T13:45:43;2.90;;;2.10;;
71777;SDS011;59609;52.430;4.668;2024-01-06T13:48:12;2.75;;;2.05;;
71777;SDS011;59609;52.430;4.668;2024-01-06T13:50:38;2.35;;;1.80;;
71777;SDS011;59609;52.430;4.668;2024-01-06T13:53:03;3.72;;;2.03;;
71777;SDS011;59609;52.430;4.668;2024-01-06T13:55:31;2.45;;;1.73;;
71777;SDS011;59609;52.430;4.668;2024-01-06T13:57:56;5.65;;;1.90;;
71777;SDS011;59609;52.430;4.668;2024-01-06T14:00:23;1.95;;;1.55;;
71777;SDS011;59609;52.430;4.668;2024-01-06T14:02:49;4.28;;;2.20;;
71777;SDS011;59609;52.430;4.668;2024-01-06T14:05:15;2.90;;;2.20;;
71777;SDS011;59609;52.430;4.668;2024-01-06T14:07:41;4.13;;;2.10;;
71777;SDS011;59609;52.430;4.668;2024-01-06T14:10:10;3.72;;;2.50;;
71777;SDS011;59609;52.430;4.668;2024-01-06T14:12:37;1.90;;;1.80;;
71777;SDS011;59609;52.430;4.668;2024-01-06T14:15:03;2.58;;;2.33;;
71777;SDS011;59609;52.430;4.668;2024-01-06T14:17:29;3.25;;;2.08;;
71777;SDS011;59609;52.430;4.668;2024-01-06T14:19:55;3.17;;;2.10;;
71777;SDS011;59609;52.430;4.668;2024-01-06T14:22:20;3.15;;;1.50;;
71777;SDS011;59609;52.430;4.668;2024-01-06T14:24:45;2.13;;;1.77;;
71777;SDS011;59609;52.430;4.668;2024-01-06T14:27:11;3.28;;;1.45;;
71777;SDS011;59609;52.430;4.668;2024-01-06T14:29:36;3.78;;;2.03;;
71777;SDS011;59609;52.430;4.668;2024-01-06T14:32:04;2.92;;;1.85;;
71777;SDS011;59609;52.430;4.668;2024-01-06T14:34:30;4.03;;;1.80;;
71777;SDS011;59609;52.430;4.668;2024-01-06T14:36:55;2.17;;;1.88;;
71777;SDS011;59609;52.430;4.668;2024-01-06T14:39:20;2.25;;;1.63;;
71777;SDS011;59609;52.430;4.668;2024-01-06T14:41:48;1.90;;;1.55;;
71777;SDS011;59609;52.430;4.668;2024-01-06T14:44:14;3.90;;;1.63;;
71777;SDS011;59609;52.430;4.668;2024-01-06T14:46:40;2.47;;;1.10;;
71777;SDS011;59609;52.430;4.668;2024-01-06T14:49:06;2.83;;;1.55;;
71777;SDS011;59609;52.430;4.668;2024-01-06T14:51:32;3.47;;;1.17;;